createdAt,value
2023-03-30T19:15:24.488Z,19.10
2023-03-30T19:17:53.151Z,19.10
2023-03-30T19:20:23.650Z,19.10
2023-03-30T19:22:51.853Z,19.20
2023-03-30T19:25:21.348Z,19.20
2023-03-30T19:28:01.943Z,19.20
2023-03-30T19:30:34.780Z,19.30
2023-03-30T19:33:06.490Z,19.40
2023-03-30T19:35:36.744Z,19.40
2023-03-30T19:38:04.721Z,19.40
2023-03-30T19:40:32.634Z,19.40
2023-03-30T19:43:00.487Z,19.40
2023-03-30T19:45:28.393Z,19.50
2023-03-30T19:47:57.651Z,19.50
2023-03-30T19:50:26.392Z,19.50
2023-03-30T19:52:55.361Z,19.60
2023-03-30T19:55:23.613Z,19.60
2023-03-30T19:57:51.587Z,19.60
2023-03-30T20:00:20.449Z,19.60
2023-03-30T20:02:50.786Z,19.60
2023-03-30T20:05:21.619Z,19.60
2023-03-30T20:07:50.413Z,19.60
2023-03-30T20:10:20.555Z,19.60
2023-03-30T20:12:49.407Z,19.70
2023-03-30T20:15:18.621Z,19.60
2023-03-30T20:17:46.717Z,19.70
2023-03-30T20:20:22.623Z,19.70
2023-03-30T20:22:53.561Z,19.70
2023-03-30T20:25:23.080Z,19.70
2023-03-30T20:27:51.012Z,19.70
2023-03-30T20:30:19.250Z,19.70
2023-03-30T20:32:59.660Z,19.70
2023-03-30T20:35:35.699Z,19.70
2023-03-30T20:38:05.037Z,19.70
2023-03-30T20:40:33.557Z,19.70
2023-03-30T20:43:02.190Z,19.70
2023-03-30T20:45:30.559Z,19.70
2023-03-30T20:47:59.721Z,19.70
2023-03-30T20:50:27.761Z,19.70
2023-03-30T20:52:55.959Z,19.70
2023-03-30T20:55:25.206Z,19.80
2023-03-30T20:57:53.090Z,19.70
2023-03-30T21:00:22.211Z,19.70
2023-03-30T21:02:50.525Z,19.70
2023-03-30T21:05:18.553Z,19.70
2023-03-30T21:07:46.835Z,19.70
2023-03-30T21:10:16.220Z,19.70
2023-03-30T21:12:45.528Z,19.70
2023-03-30T21:15:14.039Z,19.70
2023-03-30T21:17:42.070Z,19.70
2023-03-30T21:20:11.663Z,19.70
2023-03-30T21:22:39.541Z,19.70
2023-03-30T21:25:08.128Z,19.70
2023-03-30T21:27:36.438Z,19.70
2023-03-30T21:30:07.039Z,19.70
2023-03-30T21:32:34.965Z,19.70
2023-03-30T21:35:02.876Z,19.70
2023-03-30T21:37:30.812Z,19.70
2023-03-30T21:39:58.694Z,19.70
2023-03-30T21:42:26.556Z,19.70
2023-03-30T21:44:54.670Z,19.70
